Flight Track Log - Related Links

Times and Time Zones

All times are in EDT time to prevent confusion due to time zone crossing. See the EJA727 flight status page for this flight to view local times or setup timezone preferences in your user account.

Time Position Orientation Groundspeed Altitude Reporting Facility
EDT Latitude Longitude Course Direction KTS MPH feet Rate Location/Type
Mon 08:35:05 AM 26.5397 -80.1797 336° Northwest 282 325 8,700  Level Miami Center
Mon 08:36:05 AM 26.5947 -80.2394 316° Northwest 324 373 10,000 650 Climbing Miami Center
Mon 08:37:05 AM 26.6136 -80.3258 284° West 318 366 10,000 500 Level Miami Center
Mon 08:38:05 AM 26.6344 -80.4147 285° West 318 366 11,000 1,500 Climbing Miami Center
Mon 08:39:00 AM 26.8813 -80.5471 342° North  Level FlightAware Approximate
Mon 08:39:05 AM 26.7231 -80.4661 333° Northwest 312 359 13,000  Level Miami Center
Mon 08:40:00 AM 26.9881 -80.5940 336° Northwest  Level FlightAware Approximate
Mon 08:40:05 AM 26.8072 -80.5178 331° Northwest 364 419 15,600  Level Miami Center
Mon 08:41:05 AM 26.9014 -80.5997 322° Northwest 390 449 18,000 1,700 Climbing Miami Center
Mon 08:42:05 AM 26.9919 -80.6494 334° Northwest 395 455 19,000 2,050 Climbing Miami Center
Mon 08:43:05 AM 27.0950 -80.6994 337° Northwest 395 455 22,100 2,100 Climbing Miami Center
Mon 08:44:05 AM 27.2022 -80.7472 338° Northwest 401 461 23,200 1,800 Climbing Miami Center
Mon 08:45:05 AM 27.3200 -80.7981 339° North 427 491 25,700 2,250 Climbing Miami Center
Mon 08:46:05 AM 27.4311 -80.8533 336° Northwest 439 505 27,700 1,650 Climbing Miami Center
Mon 08:47:05 AM 27.5467 -80.9042 339° North 439 505 29,000 650 Climbing Miami Center
Mon 08:48:05 AM 27.6681 -80.9647 336° Northwest 449 517 29,000 500 Level Miami Center
Mon 08:49:05 AM 27.7875 -81.0206 338° Northwest 462 532 30,000 1,000 Climbing Miami Center
Mon 08:50:05 AM 27.9092 -81.0744 339° North 468 539 31,000 500 Climbing Miami Center
Mon 08:51:05 AM 28.0303 -81.1378 335° Northwest 468 539 31,000 750 Level Miami Center
Mon 08:52:05 AM 28.1642 -81.1969 339° North 476 548 32,500 1,000 Climbing Miami Center
Mon 08:53:05 AM 28.2836 -81.2533 337° Northwest 469 540 33,000 250 Climbing Miami Center
Mon 08:54:05 AM 28.4033 -81.2911 344° North 474 545 33,000  Level Miami Center
Mon 08:55:05 AM 28.5333 -81.3339 344° North 474 545 33,000  Level Miami Center
Mon 08:55:48 AM 28.6375 -81.3644 346° North 474 545 33,000  Level Jacksonville Center
Mon 08:56:48 AM 28.7528 -81.4053 343° North 455 524 33,000  Level Jacksonville Center
Mon 08:57:48 AM 28.8828 -81.4486 344° North 462 532 33,000  Level Jacksonville Center
Mon 08:58:48 AM 29.0106 -81.4917 344° North 473 544 33,000  Level Jacksonville Center
Mon 08:59:48 AM 29.1425 -81.5328 345° North 478 550 33,000  Level Jacksonville Center
Mon 09:00:48 AM 29.2681 -81.5739 344° North 478 550 33,000  Level Jacksonville Center
Mon 09:01:48 AM 29.3958 -81.6197 343° North 478 550 33,000 650 Level Jacksonville Center
Mon 09:02:48 AM 29.5236 -81.6633 343° North 478 550 34,300 1,000 Climbing Jacksonville Center
Mon 09:03:48 AM 29.6494 -81.7119 341° North 478 550 35,000 350 Climbing Jacksonville Center
Mon 09:04:48 AM 29.7772 -81.7583 343° North 478 550 35,000  Level Jacksonville Center
Mon 09:05:48 AM 29.9050 -81.8047 343° North 478 550 35,000  Level Jacksonville Center
Mon 09:06:48 AM 30.0472 -81.8558 343° North 483 556 35,000  Level Jacksonville Center
Mon 09:07:48 AM 30.1750 -81.9028 342° North 483 556 35,000  Level Jacksonville Center
Mon 09:08:48 AM 30.3047 -81.9519 342° North 483 556 35,000  Level Jacksonville Center
Mon 09:09:48 AM 30.4219 -81.9964 342° North 492 566 35,000  Level Jacksonville Center
Mon 09:10:48 AM 30.5644 -82.0556 340° North 491 565 35,000  Level Jacksonville Center
Mon 09:11:48 AM 30.6942 -82.1050 342° North 491 565 35,000  Level Jacksonville Center
Mon 09:12:48 AM 30.8239 -82.1522 343° North 491 565 35,000  Level Jacksonville Center
Mon 09:13:48 AM 30.9494 -82.2022 341° North 486 559 35,000  Level Jacksonville Center
Mon 09:14:48 AM 31.0792 -82.2522 342° North 486 559 35,000  Level Jacksonville Center
Mon 09:15:48 AM 31.2067 -82.3000 342° North 486 559 35,000  Level Jacksonville Center
Mon 09:16:48 AM 31.3344 -82.3503 341° North 486 559 35,000 -100 Level Jacksonville Center
Mon 09:17:48 AM 31.4619 -82.3981 342° North 486 559 34,800 -900 Descending Jacksonville Center
Mon 09:18:48 AM 31.5917 -82.4486 342° North 486 559 33,200 -900 Descending Jacksonville Center
Mon 09:19:48 AM 31.7169 -82.4969 342° North 486 559 33,000 -100 Descending Jacksonville Center
Mon 09:20:48 AM 31.8444 -82.5478 341° North 486 559 33,000  Level Jacksonville Center
Mon 09:21:18 AM 31.8964 -82.5686 341° North 485 558 33,000  Level Atlanta Center
Mon 09:22:18 AM 32.0244 -82.6181 342° North 485 558 33,000  Level Atlanta Center
Mon 09:23:18 AM 32.1522 -82.6675 342° North 485 558 33,000 -650 Level Atlanta Center
Mon 09:24:18 AM 32.2800 -82.7172 342° North 485 558 31,700 -1,400 Descending Atlanta Center
Mon 09:25:18 AM 32.4100 -82.7694 341° North 485 558 30,200 -1,600 Descending Atlanta Center
Mon 09:26:18 AM 32.5506 -82.8289 340° North 484 557 28,500 -1,850 Descending Atlanta Center
Mon 09:27:18 AM 32.6681 -82.9036 332° Northwest 478 550 26,500 -1,850 Descending Atlanta Center
Mon 09:28:18 AM 32.7772 -82.9642 335° Northwest 473 544 24,800 -2,000 Descending Atlanta Center
Mon 09:29:18 AM 32.8967 -83.0319 335° Northwest 451 519 22,500 -2,150 Descending Atlanta Center
Mon 09:30:18 AM 32.9933 -83.1150 324° Northwest 435 501 20,500 -1,900 Descending Atlanta Center
Mon 09:31:18 AM 33.0650 -83.2108 312° West 421 484 18,700 -1,750 Descending Atlanta Center
Mon 09:32:18 AM 33.1367 -83.3194 308° West 421 484 17,000 -1,850 Descending Atlanta Center
Mon 09:33:18 AM 33.2083 -83.4156 312° West 408 470 15,000 -2,050 Descending Atlanta Center
Mon 09:34:18 AM 33.2756 -83.5094 311° West 387 445 12,900 -1,950 Descending Atlanta Center
Mon 09:35:18 AM 33.3383 -83.6036 309° West 368 423 11,100 -1,267 Descending Atlanta Center
Mon 09:35:48 AM 33.3667 -83.6500 306° West 308 354 11,000 -100 Descending Atlanta TRACON
Mon 09:36:18 AM 33.4033 -83.6831 323° Northwest 343 395 11,000 -267 Level Atlanta Center
Mon 09:37:18 AM 33.4828 -83.7225 338° Northwest 301 346 10,600 -1,000 Descending Atlanta Center
Mon 09:38:18 AM 33.5664 -83.7447 348° North 301 346 9,000 -1,550 Descending Atlanta Center
Mon 09:39:18 AM 33.6478 -83.7694 346° North 301 346 7,500 -1,000 Descending Atlanta Center
Mon 09:40:18 AM 33.7250 -83.7939 345° North 288 331 7,000 -250 Descending Atlanta Center
Mon 09:41:18 AM 33.8044 -83.8189 345° North 288 331 7,000  Level Atlanta Center
Mon 09:42:18 AM 33.8839 -83.8411 347° North 288 331 7,000 -700 Level Atlanta Center
Mon 09:43:18 AM 33.9589 -83.8711 342° North 288 331 5,600 -1,450 Descending Atlanta Center
Mon 09:44:18 AM 34.0217 -83.9008 339° North 261 300 4,100 -696 Descending Atlanta Center
Mon 09:45:36 AM 34.0833 -83.9500 327° Northwest 197 227 4,000 -43 Descending Atlanta TRACON
Mon 09:46:36 AM 34.1167 -84.0000 309° West 198 228 4,000  Level Atlanta TRACON
Mon 09:47:30 AM 34.1167 -84.0500 270° West 178 205 4,000  Level Atlanta TRACON
Mon 09:48:30 AM 34.1167 -84.1000 270° West 183 211 4,000  Level Atlanta TRACON
Mon 09:49:30 AM 34.1000 -84.1667 253° West 184 212 4,000 -190 Level Atlanta TRACON
Mon 09:50:36 AM 34.0667 -84.2167 231° Southwest 196 226 3,600 -500 Descending Atlanta TRACON
Mon 09:51:30 AM 34.0333 -84.2333 203° Southwest 192 221 3,000 -316 Descending Atlanta TRACON
Mon 09:52:30 AM 33.9833 -84.2500 195° South 163 188 3,000 -300 Level Atlanta TRACON
Mon 09:53:30 AM 33.9500 -84.2667 203° Southwest 130 150 2,400 -650 Descending Atlanta TRACON
Mon 09:54:30 AM 33.9167 -84.2833 203° Southwest 142 163 1,700 -700 Descending Atlanta TRACON
Mon 09:56:00 AM 33.8756 -84.3020 220° Southwest  Level Estimated
Mon 10:03:00 AM 33.8756 -84.3020 220° Southwest  Level Estimated
Mon 10:04:00 AM 33.8756 -84.3020 220° Southwest  Level Estimated

Login

Don't have an account? Register now (free) for customized features, flight alerts, and more!